sensor_id;sensor_type;location;lat;lon;timestamp;temperature;humidity
56428;DHT22;42331;53.578;9.760;2022-07-24T12:54:17;26.90;99.90
56428;DHT22;42331;53.578;9.760;2022-07-24T12:56:51;27.90;99.90
56428;DHT22;42331;53.578;9.760;2022-07-24T12:59:30;27.60;99.90
56428;DHT22;42331;53.578;9.760;2022-07-24T13:04:45;27.20;99.90
56428;DHT22;42331;53.578;9.760;2022-07-24T13:07:22;27.20;99.90
56428;DHT22;42331;53.578;9.760;2022-07-24T13:09:53;27.10;99.90
56428;DHT22;42331;53.578;9.760;2022-07-24T13:12:24;27.30;99.90
56428;DHT22;42331;53.578;9.760;2022-07-24T13:14:55;27.40;99.90
56428;DHT22;42331;53.578;9.760;2022-07-24T13:17:25;27.40;99.90
56428;DHT22;42331;53.578;9.760;2022-07-24T13:19:57;27.50;99.90
56428;DHT22;42331;53.578;9.760;2022-07-24T13:22:28;27.70;99.90
56428;DHT22;42331;53.578;9.760;2022-07-24T13:24:59;27.80;99.90
56428;DHT22;42331;53.578;9.760;2022-07-24T13:27:29;28.00;99.90
56428;DHT22;42331;53.578;9.760;2022-07-24T13:30:00;28.00;99.90
56428;DHT22;42331;53.578;9.760;2022-07-24T13:32:31;28.00;99.90
56428;DHT22;42331;53.578;9.760;2022-07-24T13:35:02;28.10;99.90
56428;DHT22;42331;53.578;9.760;2022-07-24T13:37:32;28.20;99.90
56428;DHT22;42331;53.578;9.760;2022-07-24T13:40:03;28.10;99.90
56428;DHT22;42331;53.578;9.760;2022-07-24T13:42:37;28.10;99.90
56428;DHT22;42331;53.578;9.760;2022-07-24T13:45:08;28.10;99.90
56428;DHT22;42331;53.578;9.760;2022-07-24T13:47:39;28.00;99.90
56428;DHT22;42331;53.578;9.760;2022-07-24T13:50:10;28.00;99.90
56428;DHT22;42331;53.578;9.760;2022-07-24T13:52:41;28.10;99.90
56428;DHT22;42331;53.578;9.760;2022-07-24T13:55:11;28.10;99.90
56428;DHT22;42331;53.578;9.760;2022-07-24T13:57:42;28.10;99.90
56428;DHT22;42331;53.578;9.760;2022-07-24T14:00:13;28.10;99.90
56428;DHT22;42331;53.578;9.760;2022-07-24T14:02:44;28.00;99.90
56428;DHT22;42331;53.578;9.760;2022-07-24T14:05:15;28.00;99.90
56428;DHT22;42331;53.578;9.760;2022-07-24T14:07:46;28.10;99.90
56428;DHT22;42331;53.578;9.760;2022-07-24T14:10:17;28.10;99.90
56428;DHT22;42331;53.578;9.760;2022-07-24T14:12:48;28.10;99.90
56428;DHT22;42331;53.578;9.760;2022-07-24T14:15:19;28.20;99.90
56428;DHT22;42331;53.578;9.760;2022-07-24T14:17:49;28.10;99.90
56428;DHT22;42331;53.578;9.760;2022-07-24T14:20:20;28.10;99.90
56428;DHT22;42331;53.578;9.760;2022-07-24T14:22:51;28.00;99.90
56428;DHT22;42331;53.578;9.760;2022-07-24T14:25:22;27.90;99.90
56428;DHT22;42331;53.578;9.760;2022-07-24T14:27:53;28.00;99.90
56428;DHT22;42331;53.578;9.760;2022-07-24T14:30:23;28.00;99.90
56428;DHT22;42331;53.578;9.760;2022-07-24T14:32:54;27.90;99.90
56428;DHT22;42331;53.578;9.760;2022-07-24T14:35:25;28.00;99.90
56428;DHT22;42331;53.578;9.760;2022-07-24T14:37:57;28.00;99.90
56428;DHT22;42331;53.578;9.760;2022-07-24T14:40:28;28.00;99.90
56428;DHT22;42331;53.578;9.760;2022-07-24T14:42:59;28.20;99.90
56428;DHT22;42331;53.578;9.760;2022-07-24T14:45:29;28.30;99.90
56428;DHT22;42331;53.578;9.760;2022-07-24T14:48:00;28.40;99.90
56428;DHT22;42331;53.578;9.760;2022-07-24T14:50:31;28.30;99.90
56428;DHT22;42331;53.578;9.760;2022-07-24T14:53:02;28.30;99.90
56428;DHT22;42331;53.578;9.760;2022-07-24T14:55:33;28.20;99.90
56428;DHT22;42331;53.578;9.760;2022-07-24T15:00:35;28.00;99.90
56428;DHT22;42331;53.578;9.760;2022-07-24T15:05:37;28.00;99.90
56428;DHT22;42331;53.578;9.760;2022-07-24T15:08:15;27.80;99.90
56428;DHT22;42331;53.578;9.760;2022-07-24T15:10:46;27.70;99.90
56428;DHT22;42331;53.578;9.760;2022-07-24T15:13:16;27.60;99.90
56428;DHT22;42331;53.578;9.760;2022-07-24T15:15:47;27.30;99.90
56428;DHT22;42331;53.578;9.760;2022-07-24T15:18:19;26.90;99.90
56428;DHT22;42331;53.578;9.760;2022-07-24T15:20:49;26.40;99.90
56428;DHT22;42331;53.578;9.760;2022-07-24T15:23:20;26.30;99.90
